Terminal Aerodrome Forecast
Issued by NWS

Home | Current Version | Previous Version | Text Only | Print | Product List | Glossary On
Versions: 1 2 3 4 5 6 7 8 9 10 11 12 13 14 15 16 17 18 19 20 21 22 23 24 25 26 27 28 29 30 31 32 33 34 35 36 37 38 39 40 41 42 43 44 45 46 47 48 49 50
000
FTUS45 KGJT 272004 AAB
TAFDRO
TAF AMD
KDRO 272004Z 2720/2818 09004KT 3SM -SHSN BR FEW010 BKN030 OVC045
      TEMPO 2720/2724 1SM -SHSN BR SCT010 OVC015
     FM280000 VRB04KT 2SM -SN BR OVC009
     FM280900 VRB03KT 4SM -SN BR OVC012
     FM281500 12003KT 1/2SM SN FZFG OVC003=

USA.gov is the U.S. government's official web portal to all federal, state and local government web resources and services.